createdAt,value
2019-01-29T00:02:27.765Z,2.30
2019-01-29T00:05:17.370Z,2.30
2019-01-29T00:07:47.818Z,2.30
2019-01-29T00:10:19.039Z,2.20
2019-01-29T00:12:49.547Z,2.30
2019-01-29T00:15:26.186Z,2.20
2019-01-29T00:17:56.645Z,2.30
2019-01-29T00:20:29.039Z,2.20
2019-01-29T00:22:59.551Z,2.30
2019-01-29T00:25:31.074Z,2.40
2019-01-29T00:28:01.537Z,2.30
2019-01-29T00:30:33.932Z,2.20
2019-01-29T00:33:04.422Z,2.20
2019-01-29T00:35:36.823Z,2.30
2019-01-29T00:38:07.273Z,2.20
2019-01-29T00:40:37.696Z,2.10
2019-01-29T00:43:08.837Z,2.10
2019-01-29T00:45:41.039Z,2.00
2019-01-29T00:48:11.490Z,2.00
2019-01-29T00:50:44.125Z,1.90
2019-01-29T00:53:14.608Z,1.80
2019-01-29T00:55:47.028Z,1.70
2019-01-29T00:58:19.592Z,1.70
2019-01-29T01:00:49.894Z,1.70
2019-01-29T01:03:20.201Z,1.60
2019-01-29T01:05:50.632Z,1.80
2019-01-29T01:08:25.079Z,1.70
2019-01-29T01:10:55.550Z,1.70
2019-01-29T01:13:25.927Z,1.60
2019-01-29T01:15:56.452Z,1.50
2019-01-29T01:18:47.261Z,1.40
2019-01-29T01:21:17.885Z,1.40
2019-01-29T01:23:50.660Z,1.50
2019-01-29T01:26:42.194Z,1.40
2019-01-29T01:29:12.724Z,1.30
2019-01-29T01:31:43.092Z,1.30
2019-01-29T01:34:14.243Z,1.30
2019-01-29T01:36:45.409Z,1.30
2019-01-29T01:39:16.818Z,1.30
2019-01-29T01:41:47.261Z,1.20
2019-01-29T01:44:17.671Z,1.30
2019-01-29T01:46:48.898Z,1.20
2019-01-29T01:49:19.260Z,1.20
2019-01-29T01:51:49.696Z,1.20
2019-01-29T01:54:20.318Z,1.30
2019-01-29T01:56:51.659Z,1.30
2019-01-29T01:59:23.110Z,1.30
2019-01-29T02:01:54.192Z,1.30
2019-01-29T02:04:27.040Z,1.30
2019-01-29T02:07:00.593Z,1.40
2019-01-29T02:09:38.170Z,1.40
2019-01-29T02:12:08.553Z,1.40
2019-01-29T02:14:38.915Z,1.50
2019-01-29T02:17:09.618Z,1.50
2019-01-29T02:19:39.993Z,1.50
2019-01-29T02:22:14.435Z,1.50
2019-01-29T02:24:47.879Z,1.40
2019-01-29T02:27:19.015Z,1.50
2019-01-29T02:29:50.185Z,1.40
2019-01-29T02:32:20.568Z,1.40
2019-01-29T02:34:50.923Z,1.20
2019-01-29T02:37:24.307Z,1.40
2019-01-29T02:39:55.512Z,1.20
2019-01-29T02:42:25.979Z,1.20
2019-01-29T02:44:57.167Z,1.10
2019-01-29T02:47:31.634Z,1.10
2019-01-29T02:50:02.326Z,1.30
2019-01-29T02:52:32.479Z,1.40
2019-01-29T02:55:02.938Z,1.40
2019-01-29T02:57:33.344Z,1.30
2019-01-29T03:00:03.799Z,1.30
2019-01-29T03:02:35.008Z,1.30
2019-01-29T03:05:05.461Z,1.30
2019-01-29T03:07:36.779Z,1.40
2019-01-29T03:10:07.194Z,1.40
2019-01-29T03:12:44.740Z,1.50
2019-01-29T03:15:29.155Z,1.60
2019-01-29T03:17:59.534Z,1.60
2019-01-29T03:23:14.240Z,1.50
2019-01-29T03:25:44.590Z,1.40
2019-01-29T03:28:15.154Z,1.40
2019-01-29T03:30:46.412Z,1.60
2019-01-29T03:33:16.958Z,1.60
2019-01-29T03:35:47.334Z,1.50
2019-01-29T03:38:17.798Z,1.50
2019-01-29T03:40:48.434Z,1.40
2019-01-29T03:43:18.780Z,1.30
2019-01-29T03:45:49.154Z,1.30
2019-01-29T03:48:20.480Z,1.20
2019-01-29T03:50:50.943Z,1.20
2019-01-29T03:53:22.272Z,1.40
2019-01-29T03:55:52.696Z,1.30
2019-01-29T03:58:23.078Z,1.40
2019-01-29T04:00:53.541Z,1.40
2019-01-29T04:03:23.956Z,1.50
2019-01-29T04:06:14.652Z,1.40
2019-01-29T04:08:52.426Z,1.40
2019-01-29T04:11:22.860Z,1.40
2019-01-29T04:13:53.319Z,1.50
2019-01-29T04:16:27.911Z,1.30
2019-01-29T04:18:58.357Z,1.30
2019-01-29T04:21:28.798Z,1.20
2019-01-29T04:23:59.349Z,1.30
2019-01-29T04:26:29.964Z,1.40
2019-01-29T04:29:00.826Z,1.40
2019-01-29T04:31:31.274Z,1.40
2019-01-29T04:34:02.415Z,1.50
2019-01-29T04:36:35.753Z,1.70
2019-01-29T04:39:06.293Z,1.60
2019-01-29T04:41:57.345Z,1.60
2019-01-29T04:44:28.482Z,1.70
2019-01-29T04:46:59.619Z,1.80
2019-01-29T04:49:31.106Z,1.80
2019-01-29T04:52:02.550Z,1.80
2019-01-29T04:54:32.918Z,1.90
2019-01-29T04:57:09.519Z,1.70
2019-01-29T04:59:39.897Z,1.70
2019-01-29T05:02:10.268Z,1.60
2019-01-29T05:04:40.587Z,1.50
2019-01-29T05:07:10.971Z,1.60
2019-01-29T05:09:41.341Z,1.60
2019-01-29T05:12:12.223Z,1.50
2019-01-29T05:14:42.128Z,1.60
2019-01-29T05:17:12.508Z,1.60
2019-01-29T05:19:42.882Z,1.60
2019-01-29T05:22:14.059Z,1.50
2019-01-29T05:24:48.527Z,1.50
2019-01-29T05:27:18.942Z,1.60
2019-01-29T05:29:49.314Z,1.80
2019-01-29T05:32:19.697Z,1.70
2019-01-29T05:34:50.426Z,1.70
2019-01-29T05:37:20.789Z,1.80
2019-01-29T05:39:51.171Z,1.80
2019-01-29T05:42:22.635Z,1.80
2019-01-29T05:44:53.408Z,1.70
2019-01-29T05:47:23.786Z,1.50
2019-01-29T05:49:54.207Z,1.40
2019-01-29T05:52:24.583Z,1.30
2019-01-29T05:54:55.144Z,1.50
2019-01-29T05:57:32.954Z,1.50
2019-01-29T06:00:05.312Z,1.40
2019-01-29T06:02:37.772Z,1.50
2019-01-29T06:05:08.203Z,1.50
2019-01-29T06:07:38.611Z,1.60
2019-01-29T06:12:52.582Z,1.40
2019-01-29T06:16:10.602Z,1.70
2019-01-29T06:18:41.013Z,1.70
2019-01-29T06:21:17.466Z,1.70
2019-01-29T06:23:47.809Z,1.70
2019-01-29T06:26:18.184Z,1.70
2019-01-29T06:28:48.546Z,1.60
2019-01-29T06:31:25.275Z,1.70
2019-01-29T06:33:55.651Z,2.00
2019-01-29T06:36:47.515Z,2.30
2019-01-29T06:39:17.881Z,1.90
2019-01-29T06:41:48.306Z,1.80
2019-01-29T06:44:18.669Z,1.80
2019-01-29T06:46:49.384Z,2.40
2019-01-29T06:49:20.783Z,1.90
2019-01-29T06:51:51.307Z,1.60
2019-01-29T06:54:22.903Z,1.40
2019-01-29T06:56:52.029Z,1.50
2019-01-29T06:59:24.385Z,1.60
2019-01-29T07:01:54.785Z,1.60
2019-01-29T07:04:25.931Z,1.60
2019-01-29T07:06:57.164Z,1.60
2019-01-29T07:09:28.242Z,1.50
2019-01-29T07:11:58.909Z,1.50
2019-01-29T07:14:29.285Z,1.50
2019-01-29T07:17:00.773Z,1.40
2019-01-29T07:19:31.141Z,1.50
2019-01-29T07:22:02.279Z,1.60
2019-01-29T07:24:33.627Z,1.60
2019-01-29T07:27:03.994Z,1.60
2019-01-29T07:29:34.550Z,1.60
2019-01-29T07:32:04.920Z,1.90
2019-01-29T07:34:36.128Z,1.70
2019-01-29T07:37:06.650Z,1.70
2019-01-29T07:39:56.450Z,1.70
2019-01-29T07:42:26.819Z,1.70
2019-01-29T07:44:57.195Z,1.60
2019-01-29T07:47:27.628Z,1.50
2019-01-29T07:49:57.987Z,1.50
2019-01-29T07:52:29.360Z,3.20
2019-01-29T07:55:00.996Z,3.20
2019-01-29T07:57:32.074Z,2.20
2019-01-29T08:00:12.584Z,2.20
2019-01-29T08:02:42.947Z,1.90
2019-01-29T08:05:13.338Z,1.90
2019-01-29T08:07:43.982Z,1.80
2019-01-29T08:10:17.998Z,1.90
2019-01-29T08:12:48.437Z,1.90
2019-01-29T08:15:22.024Z,1.80
2019-01-29T08:17:54.257Z,1.70
2019-01-29T08:20:24.628Z,1.70
2019-01-29T08:22:54.942Z,1.70
2019-01-29T08:25:26.146Z,1.70
2019-01-29T08:28:15.900Z,1.70
2019-01-29T08:30:46.311Z,1.70
2019-01-29T08:33:16.685Z,1.80
2019-01-29T08:35:47.058Z,1.80
2019-01-29T08:38:17.535Z,1.70
2019-01-29T08:40:47.899Z,1.70
2019-01-29T08:43:19.139Z,1.80
2019-01-29T08:45:49.701Z,1.80
2019-01-29T08:48:20.075Z,1.80
2019-01-29T08:50:50.426Z,2.00
2019-01-29T08:53:22.829Z,1.90
